Time;durP1;ratioP1;P1;durP2;ratioP2;P2;SDS_P1;SDS_P2;PMS_P1;PMS_P2;Temp;Humidity;BMP_temperature;BMP_pressure;BME280_temperature;BME280_humidity;BME280_pressure;Samples;Min_cycle;Max_cycle;Signal;HPM_P1;HPM_P2
2022/08/14 00:02:03;;;;;;;5.53;5.03;;;24.10;57.70;;;25.03;40.46;100193.94;4882709;29;20690;-69
2022/08/14 00:04:33;;;;;;;6.13;5.40;;;24.00;57.80;;;25.03;40.47;100182.44;4897046;29;20618;-70
2022/08/14 00:07:12;;;;;;;6.00;4.73;;;23.90;57.70;;;25.01;40.51;100176.50;4912178;29;20668;-71
2022/08/14 00:09:44;;;;;;;6.20;5.10;;;23.90;57.80;;;24.85;40.56;100172.50;4915585;29;21047;-71
2022/08/14 00:12:34;;;;;;;5.93;5.13;;;23.80;58.20;;;24.89;40.71;100167.53;4909800;29;20639;-71
2022/08/14 00:15:14;;;;;;;5.53;5.03;;;23.80;58.50;;;24.82;41.15;100172.91;4912804;29;20796;-71
2022/08/14 00:17:43;;;;;;;5.47;4.90;;;23.70;58.60;;;24.66;41.49;100168.84;4900434;29;20642;-70
2022/08/14 00:20:27;;;;;;;8.47;5.60;;;23.60;59.30;;;24.66;41.74;100155.50;4892503;29;20638;-69
2022/08/14 00:23:03;;;;;;;6.50;5.77;;;23.60;59.80;;;24.55;42.89;100158.81;4915143;29;21193;-70
2022/08/14 00:25:52;;;;;;;7.50;6.07;;;23.50;60.80;;;24.52;43.17;100147.78;4896509;29;21067;-71
2022/08/14 00:28:34;;;;;;;6.67;5.97;;;23.50;61.30;;;24.52;44.19;100161.09;4897129;29;20662;-71
2022/08/14 00:31:04;;;;;;;7.73;5.50;;;23.50;63.10;;;24.43;44.66;100152.53;4898965;29;20718;-70
2022/08/14 00:33:33;;;;;;;7.60;5.43;;;23.40;62.40;;;24.43;44.80;100152.53;4896902;29;20619;-71
2022/08/14 00:36:20;;;;;;;6.20;5.67;;;23.40;62.90;;;24.46;44.88;100149.44;4882764;29;20750;-71
2022/08/14 00:39:12;;;;;;;5.97;5.40;;;23.40;63.30;;;24.43;45.23;100141.03;4905667;29;20622;-69
2022/08/14 00:41:40;;;;;;;6.80;5.53;;;23.40;63.20;;;24.48;45.37;100160.72;4896555;29;20623;-69
2022/08/14 00:44:08;;;;;;;5.70;5.10;;;23.40;63.80;;;24.53;45.14;100152.88;4880038;29;20741;-70
2022/08/14 00:46:37;;;;;;;10.40;5.13;;;23.50;63.80;;;24.50;45.54;100148.00;4895169;29;20758;-68
2022/08/14 00:49:06;;;;;;;6.50;5.90;;;23.50;63.70;;;24.66;45.67;100150.16;4895862;29;21264;-70
2022/08/14 00:51:38;;;;;;;6.43;5.47;;;23.50;64.20;;;24.58;45.98;100149.59;4879701;29;20766;-70
2022/08/14 00:54:07;;;;;;;6.17;5.50;;;23.50;64.50;;;24.52;46.02;100143.25;4897653;29;20625;-73
2022/08/14 00:56:52;;;;;;;6.07;5.53;;;23.50;64.80;;;24.52;46.37;100145.94;4897469;29;20647;-70
2022/08/14 00:59:24;;;;;;;8.10;5.57;;;23.50;65.30;;;24.37;47.57;100153.38;4897451;29;20731;-70
2022/08/14 01:01:56;;;;;;;5.90;5.40;;;23.50;65.90;;;24.44;46.99;100146.19;4894920;29;21081;-69
2022/08/14 01:04:27;;;;;;;6.50;5.37;;;23.40;65.50;;;24.39;46.84;100145.16;4895832;29;21041;-70
2022/08/14 01:07:19;;;;;;;7.10;5.03;;;23.40;65.50;;;24.38;46.53;100146.19;4909791;29;20729;-70
2022/08/14 01:09:57;;;;;;;6.00;5.40;;;23.40;65.40;;;24.42;46.37;100142.91;4910991;29;20670;-70
2022/08/14 01:12:27;;;;;;;5.60;5.10;;;23.40;64.70;;;24.38;45.74;100139.00;4914297;29;20676;-69
2022/08/14 01:14:59;;;;;;;5.23;4.37;;;23.40;64.60;;;24.37;45.17;100128.56;4925926;29;20638;-71
2022/08/14 01:23:10;;;;;;;6.20;5.00;;;23.20;63.10;;;24.17;44.02;100130.50;4902011;29;20631;-70
2022/08/14 01:25:48;;;;;;;6.00;5.40;;;23.10;62.90;;;24.12;43.79;100123.13;4899107;29;20653;-69
2022/08/14 01:28:21;;;;;;;11.23;6.27;;;23.00;62.70;;;24.03;44.04;100119.00;4914726;29;21006;-72
2022/08/14 01:31:16;;;;;;;6.43;5.80;;;22.90;62.90;;;23.84;44.33;100114.53;4899923;29;20660;-71
2022/08/14 01:33:49;;;;;;;7.63;6.47;;;22.80;62.90;;;23.72;44.86;100095.69;4878771;29;20610;-70
2022/08/14 01:36:37;;;;;;;7.30;6.50;;;22.70;63.20;;;23.73;44.81;100099.19;4896552;29;20650;-70
2022/08/14 01:39:12;;;;;;;7.10;6.33;;;22.70;63.50;;;23.54;45.25;100098.19;4907489;29;20622;-70
2022/08/14 01:41:43;;;;;;;8.73;6.20;;;22.60;63.80;;;23.47;45.65;100092.06;4915789;29;20717;-70
2022/08/14 01:44:14;;;;;;;6.93;6.23;;;22.50;64.30;;;23.45;46.09;100085.28;4915771;29;20618;-70
2022/08/14 01:47:11;;;;;;;6.10;5.50;;;22.50;64.70;;;23.38;46.41;100081.84;4894424;29;21054;-72
2022/08/14 01:49:48;;;;;;;7.53;6.80;;;22.40;65.00;;;23.54;46.63;100079.56;4895252;29;20631;-71
2022/08/14 01:52:26;;;;;;;7.87;6.67;;;22.50;65.50;;;23.38;47.25;100087.16;4896014;29;20726;-69
2022/08/14 01:55:14;;;;;;;11.23;7.37;;;22.40;65.90;;;23.26;47.49;100089.59;4882692;29;21019;-70
2022/08/14 01:57:44;;;;;;;11.30;8.33;;;22.30;66.40;;;23.46;47.21;100089.59;4879901;29;20993;-70
2022/08/14 02:00:28;;;;;;;12.03;8.00;;;22.40;66.30;;;23.42;47.54;100085.72;4886432;29;20992;-70
2022/08/14 02:03:02;;;;;;;12.10;8.50;;;22.40;66.70;;;23.50;47.52;100090.84;4903672;29;20635;-69
2022/08/14 02:05:33;;;;;;;12.50;9.10;;;22.50;66.70;;;23.53;47.74;100088.56;4914089;29;20663;-70
2022/08/14 02:08:06;;;;;;;8.77;7.13;;;22.50;67.00;;;23.45;48.00;100091.44;4913085;29;21170;-72
2022/08/14 02:10:38;;;;;;;8.70;7.27;;;22.50;67.90;;;23.39;47.77;100078.97;4878579;29;21250;-70
2022/08/14 02:13:15;;;;;;;8.93;7.10;;;22.40;67.20;;;23.24;48.41;100080.97;4898581;29;20706;-70
2022/08/14 02:15:44;;;;;;;9.20;6.67;;;22.30;67.30;;;23.25;48.35;100087.97;4914136;29;20642;-70
2022/08/14 02:18:14;;;;;;;8.40;6.77;;;22.30;67.60;;;23.17;48.24;100082.81;4913625;29;20630;-70
2022/08/14 02:20:41;;;;;;;10.37;8.43;;;22.20;67.70;;;23.10;48.36;100069.53;4914524;29;20856;-70
2022/08/14 02:23:08;;;;;;;13.90;9.10;;;22.10;67.70;;;23.19;48.01;100072.81;4915269;29;20610;-70
2022/08/14 02:25:38;;;;;;;10.77;8.63;;;22.10;67.70;;;23.20;48.54;100066.44;4915018;29;20646;-70
2022/08/14 02:28:06;;;;;;;15.50;8.57;;;22.10;68.10;;;23.19;48.31;100064.00;4902284;29;20650;-70
2022/08/14 02:30:53;;;;;;;11.77;8.33;;;22.10;67.80;;;23.13;48.23;100063.78;4895692;29;21275;-67
2022/08/14 02:33:21;;;;;;;12.50;9.47;;;22.00;67.90;;;23.17;48.02;100066.84;4894977;29;20653;-69
2022/08/14 02:35:48;;;;;;;11.30;8.93;;;22.00;68.00;;;23.04;48.04;100058.88;4894184;29;20642;-69
2022/08/14 02:38:31;;;;;;;12.83;9.23;;;22.00;68.40;;;23.06;48.17;100060.28;4882416;29;20645;-70
2022/08/14 02:41:01;;;;;;;9.30;7.67;;;21.90;68.30;;;22.91;48.83;100059.66;4896488;29;20631;-70
2022/08/14 02:43:35;;;;;;;13.43;7.60;;;21.90;68.50;;;22.88;49.00;100060.09;4900275;29;20643;-70
2022/08/14 02:46:11;;;;;;;11.83;8.57;;;21.80;68.60;;;22.67;49.31;100057.63;4911507;29;21236;-70
2022/08/14 02:48:41;;;;;;;12.10;7.60;;;21.70;68.70;;;22.67;49.21;100052.28;4913437;29;20622;-70
2022/08/14 02:51:28;;;;;;;12.70;7.57;;;21.70;69.00;;;22.62;49.81;100052.06;4913807;29;20654;-70
2022/08/14 02:53:57;;;;;;;11.60;8.60;;;21.60;69.60;;;22.57;50.21;100046.53;4912660;29;20637;-70
2022/08/14 02:56:26;;;;;;;16.10;8.70;;;21.50;70.00;;;22.48;50.85;100047.72;4909993;29;20663;-70
2022/08/14 02:59:14;;;;;;;15.90;9.20;;;21.50;70.80;;;22.32;51.49;100043.59;4913297;29;20621;-71
2022/08/14 03:01:42;;;;;;;12.40;8.00;;;21.40;71.50;;;22.24;51.59;100045.59;4888550;29;21233;-72
2022/08/14 03:04:21;;;;;;;12.67;8.90;;;21.30;72.00;;;22.16;52.11;100040.47;4913309;29;20638;-70
2022/08/14 03:06:51;;;;;;;14.37;8.60;;;21.20;72.30;;;22.13;52.41;100041.69;4896380;29;21237;-70
2022/08/14 03:09:35;;;;;;;17.43;9.70;;;21.20;72.70;;;22.08;52.52;100046.75;4913148;29;20737;-71
2022/08/14 03:12:24;;;;;;;14.20;9.90;;;21.10;73.30;;;22.09;53.06;100043.09;4909691;29;20655;-71
2022/08/14 03:15:07;;;;;;;16.43;10.60;;;21.10;73.70;;;22.13;52.98;100040.84;4914416;29;20621;-70
2022/08/14 03:17:41;;;;;;;18.00;9.83;;;21.10;73.90;;;22.17;52.66;100044.75;4900207;29;20630;-70
2022/08/14 03:20:27;;;;;;;16.33;10.23;;;21.10;73.90;;;22.19;52.74;100042.75;4909668;29;20638;-70
2022/08/14 03:23:00;;;;;;;13.37;9.83;;;21.10;74.20;;;22.23;52.83;100046.63;4916954;29;20635;-70
2022/08/14 03:25:32;;;;;;;16.10;10.10;;;21.10;74.50;;;22.20;52.90;100050.50;4898918;29;21035;-71
2022/08/14 03:28:08;;;;;;;14.53;9.60;;;21.10;74.70;;;22.16;53.20;100040.47;4897155;29;20984;-73
2022/08/14 03:30:57;;;;;;;15.53;10.50;;;21.10;75.00;;;22.07;53.45;100039.00;4896883;29;20631;-71
2022/08/14 03:33:28;;;;;;;21.13;10.40;;;21.00;75.60;;;22.10;53.67;100041.25;4897737;29;20812;-70
2022/08/14 03:36:19;;;;;;;16.60;11.17;;;21.00;75.60;;;22.12;53.01;100040.06;4900985;29;20737;-71
2022/08/14 03:39:08;;;;;;;14.93;10.40;;;21.00;75.40;;;22.09;53.28;100036.94;4902541;29;21039;-70
2022/08/14 03:41:54;;;;;;;13.70;10.70;;;21.10;75.40;;;22.11;53.51;100033.09;4899065;29;20732;-70
2022/08/14 03:44:24;;;;;;;15.63;11.20;;;21.10;75.70;;;21.93;54.19;100022.19;4916494;29;20629;-70
2022/08/14 03:47:10;;;;;;;22.30;11.70;;;21.10;76.10;;;22.02;53.69;100028.16;4903938;29;20654;-70
2022/08/14 03:49:43;;;;;;;20.00;11.70;;;21.10;76.00;;;22.14;53.90;100029.22;4916033;29;21065;-71
2022/08/14 03:52:12;;;;;;;15.67;10.60;;;21.10;76.40;;;22.16;54.00;100035.97;4915620;29;21312;-70
2022/08/14 03:54:59;;;;;;;17.20;10.30;;;21.20;76.70;;;22.18;54.31;100038.44;4901590;29;20637;-71
2022/08/14 03:57:31;;;;;;;16.57;10.30;;;21.10;77.60;;;22.11;54.85;100040.22;4915867;29;20642;-70
2022/08/14 04:00:02;;;;;;;16.53;11.03;;;21.10;78.10;;;22.03;55.10;100032.44;4906062;29;20638;-68
2022/08/14 04:02:29;;;;;;;16.53;10.87;;;21.10;78.50;;;22.16;54.66;100030.66;4907087;29;20639;-71
2022/08/14 04:05:08;;;;;;;16.13;10.90;;;21.10;78.70;;;22.19;54.93;100029.44;4896922;29;20638;-70
2022/08/14 04:07:42;;;;;;;16.93;11.50;;;21.10;78.80;;;22.21;54.88;100025.56;4896233;29;20872;-72
2022/08/14 04:10:29;;;;;;;16.80;10.57;;;21.20;79.20;;;22.18;54.88;100027.78;4897306;29;21385;-67
2022/08/14 04:13:03;;;;;;;14.60;10.57;;;21.20;79.50;;;22.21;55.45;100027.41;4915115;29;21234;-70
2022/08/14 04:15:32;;;;;;;19.90;11.43;;;21.10;80.30;;;22.07;55.76;100021.22;4899121;29;20698;-71
2022/08/14 04:18:19;;;;;;;12.53;10.37;;;21.10;80.50;;;22.11;55.88;100022.47;4882690;29;20623;-72
2022/08/14 04:20:46;;;;;;;15.27;10.67;;;21.10;81.20;;;22.10;55.41;100023.50;4896915;29;20619;-70
2022/08/14 04:23:23;;;;;;;16.17;10.20;;;21.00;80.70;;;22.13;55.38;100025.72;4904569;29;20730;-70
2022/08/14 04:26:01;;;;;;;14.73;10.47;;;21.00;81.30;;;21.94;55.93;100013.19;4913532;29;21233;-70
2022/08/14 04:28:28;;;;;;;18.10;11.37;;;21.00;81.60;;;22.06;55.49;100022.22;4915396;29;20643;-70
2022/08/14 04:31:17;;;;;;;13.77;9.40;;;21.00;81.70;;;22.14;55.17;100016.75;4902042;29;20711;-70
2022/08/14 04:34:05;;;;;;;19.87;11.37;;;21.00;81.60;;;22.19;55.36;100022.28;4898291;29;21190;-70
2022/08/14 04:43:34;;;;;;;16.03;10.17;;;21.00;82.10;;;22.18;55.53;100027.78;4915056;29;20662;-71
2022/08/14 04:44:58;;;;;;;14.50;10.37;;;21.00;83.10;;;22.24;55.15;100029.66;4911458;29;21092;-70
2022/08/14 04:50:12;;;;;;;17.23;9.67;;;21.10;84.00;;;22.52;54.89;100030.34;4896193;29;20659;-70
2022/08/14 04:52:39;;;;;;;18.57;11.10;;;21.30;83.30;;;22.71;54.25;100028.75;4896522;29;21278;-70
2022/08/14 04:55:09;;;;;;;17.43;11.03;;;21.40;83.10;;;22.90;53.81;100026.13;4906127;29;21238;-70
2022/08/14 04:57:38;;;;;;;18.53;11.13;;;21.60;82.70;;;23.07;53.44;100031.84;4895582;29;20726;-70
2022/08/14 05:00:06;;;;;;;14.10;10.90;;;21.80;82.50;;;23.23;53.19;100031.44;4906813;29;20645;-69
2022/08/14 05:02:42;;;;;;;18.23;12.10;;;21.90;82.10;;;23.46;52.76;100025.72;4903515;29;20634;-70
2022/08/14 05:05:09;;;;;;;17.27;10.60;;;22.10;81.50;;;23.63;51.98;100024.22;4903134;29;21017;-70
2022/08/14 05:07:36;;;;;;;18.27;11.30;;;22.30;81.10;;;23.74;51.90;100020.94;4895260;29;20651;-70
2022/08/14 05:10:24;;;;;;;17.97;12.10;;;22.50;80.50;;;24.06;51.08;100021.88;4907736;29;20634;-70
2022/08/14 05:12:58;;;;;;;20.63;12.70;;;22.70;79.60;;;24.40;49.86;100008.97;4914881;29;20641;-70
2022/08/14 05:15:41;;;;;;;23.40;13.03;;;23.00;78.60;;;24.59;49.71;100015.22;4896146;29;21082;-70
2022/08/14 05:18:12;;;;;;;21.67;12.00;;;23.30;77.60;;;24.67;50.07;100015.78;4894919;29;20655;-70
2022/08/14 05:21:03;;;;;;;19.67;12.30;;;23.50;77.30;;;24.95;49.93;100017.22;4897577;29;20591;-71
2022/08/14 05:23:50;;;;;;;18.20;12.77;;;23.80;77.30;;;25.30;48.63;100010.31;4897989;29;20611;-70
2022/08/14 05:26:20;;;;;;;17.13;11.93;;;24.00;76.80;;;25.62;47.87;100011.88;4882106;29;20665;-70
2022/08/14 05:28:47;;;;;;;17.70;11.80;;;24.20;75.90;;;25.83;47.21;100010.63;4898166;29;20623;-71
2022/08/14 05:31:16;;;;;;;19.10;11.70;;;24.50;74.80;;;26.25;46.74;100015.03;4895278;29;20686;-71
2022/08/14 05:33:48;;;;;;;19.80;12.00;;;24.80;74.20;;;26.63;46.11;100010.16;4895067;29;20631;-71
2022/08/14 05:36:23;;;;;;;20.90;12.00;;;25.10;73.30;;;26.98;45.23;100015.63;4895369;29;20694;-70
2022/08/14 05:38:52;;;;;;;19.10;11.90;;;25.40;72.70;;;27.37;45.06;100017.63;4882488;29;20677;-70
2022/08/14 05:41:19;;;;;;;18.70;12.17;;;25.70;72.50;;;27.71;44.01;100020.53;4915567;29;20625;-71
2022/08/14 05:43:47;;;;;;;24.83;13.30;;;26.00;71.20;;;28.17;42.62;100020.41;4915409;29;20635;-71
2022/08/14 05:46:22;;;;;;;16.93;11.73;;;26.30;70.10;;;28.69;41.40;100018.41;4907266;29;20663;-70
2022/08/14 05:48:52;;;;;;;18.10;11.67;;;26.70;68.80;;;29.24;40.01;100013.97;4911977;29;20638;-72
2022/08/14 05:51:21;;;;;;;18.30;11.97;;;27.20;67.50;;;29.78;38.94;100023.91;4897167;29;20665;-71
2022/08/14 05:53:48;;;;;;;15.60;11.80;;;27.50;66.40;;;30.19;37.94;100024.38;4913168;29;20634;-71
2022/08/14 05:56:27;;;;;;;15.67;11.50;;;27.90;65.20;;;30.43;37.94;100023.06;4914832;29;21209;-71
2022/08/14 05:58:55;;;;;;;14.13;10.73;;;28.10;64.60;;;30.80;37.31;100028.50;4915211;29;20689;-70
2022/08/14 06:01:22;;;;;;;17.33;11.37;;;28.30;64.00;;;31.24;37.07;100028.06;4904002;29;20739;-70
2022/08/14 06:03:49;;;;;;;17.37;11.90;;;28.60;63.60;;;31.55;36.03;100031.78;4896001;29;20615;-70
2022/08/14 06:06:20;;;;;;;17.93;12.40;;;28.80;63.00;;;31.90;36.00;100010.34;4904128;29;20693;-70
2022/08/14 06:08:47;;;;;;;17.33;12.80;;;29.10;62.60;;;31.78;35.55;100012.47;4907766;29;20635;-70
2022/08/14 06:11:14;;;;;;;15.40;12.60;;;29.20;61.80;;;31.49;36.14;100013.16;4912765;29;20658;-70
2022/08/14 06:13:57;;;;;;;17.50;13.87;;;29.30;61.50;;;32.01;35.24;100003.13;4913515;29;20915;-70
2022/08/14 06:16:24;;;;;;;16.97;12.17;;;29.60;61.60;;;31.78;36.02;99993.59;4909473;29;20655;-70
2022/08/14 06:18:51;;;;;;;19.73;11.20;;;29.60;61.50;;;32.21;35.25;100005.09;4895685;29;20626;-70
2022/08/14 06:21:21;;;;;;;20.57;14.47;;;29.70;61.60;;;32.39;34.77;99999.97;4896473;29;20627;-70
2022/08/14 06:23:49;;;;;;;20.10;15.60;;;29.90;60.90;;;32.67;34.87;100004.09;4913659;29;20626;-70
2022/08/14 06:26:17;;;;;;;20.60;14.20;;;30.00;61.20;;;33.57;33.37;100001.31;4895742;29;20655;-67
2022/08/14 06:28:48;;;;;;;20.97;13.90;;;30.50;61.10;;;34.20;32.25;100002.41;4879273;29;20623;-71
2022/08/14 06:31:19;;;;;;;19.37;12.87;;;30.90;59.90;;;34.64;32.04;99996.16;4888834;29;20683;-70
2022/08/14 06:33:47;;;;;;;21.70;13.20;;;31.30;59.10;;;35.47;30.87;99992.16;4895608;29;20670;-71
2022/08/14 06:36:36;;;;;;;19.30;12.73;;;31.90;58.10;;;37.08;29.01;99992.53;4893854;29;20673;-70
2022/08/14 06:39:03;;;;;;;19.37;13.53;;;32.90;57.20;;;38.27;27.59;99986.09;4898724;29;20626;-71
2022/08/14 06:41:37;;;;;;;20.37;14.43;;;33.60;56.00;;;39.38;25.80;99978.59;4912902;29;20634;-71
2022/08/14 06:44:24;;;;;;;20.63;16.53;;;34.30;55.10;;;40.13;24.79;99979.13;4914044;29;21014;-73
2022/08/14 06:47:03;;;;;;;18.13;15.07;;;35.00;54.00;;;40.95;24.16;99965.22;4930353;29;20663;-71
2022/08/14 06:49:32;;;;;;;17.83;13.27;;;35.60;53.40;;;40.92;24.18;99968.63;4895532;29;20635;-72
2022/08/14 06:52:15;;;;;;;22.00;13.23;;;36.00;52.60;;;39.16;26.48;99962.31;4913738;29;21252;-74
2022/08/14 06:54:44;;;;;;;17.37;13.53;;;35.50;52.80;;;39.20;26.16;99964.09;4898636;29;20670;-72
2022/08/14 06:57:11;;;;;;;19.77;16.07;;;35.30;53.00;;;38.94;26.88;99956.88;4881619;29;20630;-74
2022/08/14 06:59:39;;;;;;;17.77;14.90;;;34.90;53.40;;;39.40;25.73;99955.31;4909811;29;20635;-72
2022/08/14 07:07:52;;;;;;;18.13;13.60;;;35.10;52.50;;;37.93;27.70;99940.25;4906467;29;20667;-73
2022/08/14 07:10:21;;;;;;;15.80;12.20;;;34.70;53.10;;;37.54;27.54;99950.88;4916247;29;20606;-75
2022/08/14 07:12:50;;;;;;;16.20;12.47;;;34.40;53.10;;;36.91;28.64;99942.59;4906739;29;20899;-72
2022/08/14 07:15:28;;;;;;;13.27;11.87;;;34.10;53.40;;;36.90;28.11;99944.50;4882310;29;20778;-75
2022/08/14 07:17:58;;;;;;;12.47;10.80;;;34.10;53.00;;;36.81;28.78;99943.53;4892135;29;20639;-70
2022/08/14 07:20:27;;;;;;;15.70;12.40;;;34.00;53.70;;;36.59;29.51;99937.94;4912741;29;20638;-69
2022/08/14 07:23:02;;;;;;;13.63;9.77;;;33.90;53.90;;;36.41;29.48;99936.03;4916693;29;21032;-70
2022/08/14 07:25:36;;;;;;;16.70;12.57;;;33.60;53.90;;;36.24;30.07;99933.88;4914482;29;20662;-69
2022/08/14 07:28:17;;;;;;;14.60;12.10;;;33.60;54.10;;;35.44;30.60;99941.16;4915977;29;20721;-69
2022/08/14 07:30:48;;;;;;;13.50;11.80;;;33.30;54.20;;;34.89;31.09;99939.03;4889047;29;20646;-68
2022/08/14 07:33:19;;;;;;;14.17;12.10;;;33.00;54.60;;;35.25;30.85;99950.34;4897185;29;20738;-69
2022/08/14 07:35:58;;;;;;;13.03;10.20;;;33.00;54.70;;;35.18;31.85;99945.28;4881021;29;20702;-69
2022/08/14 07:38:26;;;;;;;13.13;11.73;;;33.00;54.90;;;35.04;31.54;99955.19;4897277;29;20611;-69
2022/08/14 07:41:04;;;;;;;17.10;12.27;;;32.90;55.30;;;35.29;31.07;99956.81;4897310;29;20623;-67
2022/08/14 07:43:42;;;;;;;15.17;11.13;;;33.00;55.10;;;35.37;30.78;99957.00;4909970;29;20622;-69
2022/08/14 07:46:18;;;;;;;11.23;9.57;;;33.00;55.30;;;34.98;30.93;99954.41;4915444;29;20721;-69
2022/08/14 07:48:55;;;;;;;9.40;8.47;;;32.80;54.70;;;34.68;31.17;99956.56;4915776;29;21049;-68
2022/08/14 07:51:22;;;;;;;10.57;9.50;;;32.70;54.60;;;34.35;32.27;99953.56;4910716;29;20645;-69
2022/08/14 07:53:51;;;;;;;14.07;10.53;;;32.50;54.60;;;34.08;32.87;99952.41;4893461;29;21214;-69
2022/08/14 07:56:23;;;;;;;12.80;11.23;;;32.30;55.20;;;33.76;33.40;99952.00;4915407;29;21225;-69
2022/08/14 07:59:10;;;;;;;13.60;11.00;;;32.10;55.60;;;33.49;34.10;99947.78;4902069;29;20645;-69
2022/08/14 08:01:39;;;;;;;13.87;10.30;;;31.90;56.60;;;33.46;34.40;99939.38;4903216;29;21241;-69
2022/08/14 08:04:24;;;;;;;10.33;8.87;;;31.60;56.90;;;33.51;33.79;99932.13;4910443;29;20620;-67
2022/08/14 08:06:53;;;;;;;9.13;8.23;;;31.60;57.00;;;33.50;33.61;99944.00;4915977;29;21286;-69
2022/08/14 08:09:26;;;;;;;10.47;9.33;;;31.60;57.60;;;33.30;34.81;99938.66;4919621;29;20709;-69
2022/08/14 08:12:02;;;;;;;11.00;8.60;;;31.50;57.10;;;33.45;34.71;99944.00;4919028;29;20681;-70
2022/08/14 08:14:34;;;;;;;9.93;7.73;;;31.70;57.30;;;33.68;32.96;99952.59;4894591;29;20718;-69
2022/08/14 08:17:22;;;;;;;16.00;8.70;;;31.80;55.90;;;33.73;33.58;99949.88;4904954;29;20716;-69
2022/08/14 08:19:50;;;;;;;9.83;8.83;;;32.00;56.00;;;33.91;33.15;99951.91;4915727;29;20621;-69
2022/08/14 08:22:19;;;;;;;10.50;9.03;;;32.00;56.40;;;34.17;32.60;99943.41;4902753;29;20739;-69
2022/08/14 08:24:47;;;;;;;9.00;8.10;;;32.10;56.40;;;34.18;32.74;99944.22;4897139;29;21074;-69
2022/08/14 08:27:21;;;;;;;10.97;8.87;;;32.10;55.60;;;33.98;32.18;99944.31;4895906;29;20698;-70
2022/08/14 08:29:49;;;;;;;11.47;9.43;;;32.10;54.40;;;33.74;33.29;99937.94;4895941;29;20671;-70
2022/08/14 08:32:17;;;;;;;11.83;8.90;;;32.00;55.60;;;33.81;33.56;99935.75;4896132;29;20681;-69
2022/08/14 08:34:47;;;;;;;12.13;9.07;;;32.00;55.80;;;33.76;32.98;99938.47;4914931;29;20618;-69
2022/08/14 08:37:15;;;;;;;9.87;8.87;;;32.00;55.90;;;33.67;32.53;99932.84;4904164;29;21094;-69
2022/08/14 08:39:44;;;;;;;10.23;8.93;;;32.00;55.30;;;33.84;32.42;99937.91;4880220;29;21214;-69
2022/08/14 08:42:31;;;;;;;9.50;8.63;;;32.00;55.00;;;33.93;31.67;99941.63;4907878;29;20657;-69
2022/08/14 08:45:14;;;;;;;9.27;7.77;;;32.10;54.40;;;33.90;31.87;99925.97;4915397;29;20626;-69
2022/08/14 08:47:43;;;;;;;11.33;8.90;;;32.20;54.50;;;33.99;32.02;99916.97;4886458;29;21233;-70
2022/08/14 08:50:22;;;;;;;11.40;10.20;;;32.30;54.40;;;34.20;31.71;99928.50;4914768;29;20660;-70
2022/08/14 08:53:02;;;;;;;9.17;7.57;;;32.40;54.60;;;33.92;32.27;99918.38;4898263;29;20655;-69
2022/08/14 08:55:39;;;;;;;9.73;8.80;;;32.30;54.00;;;34.28;31.60;99920.59;4879333;29;20635;-69
2022/08/14 08:58:11;;;;;;;9.37;8.47;;;32.50;54.10;;;34.01;31.17;99919.44;4892844;29;20745;-71
2022/08/14 09:00:56;;;;;;;8.87;7.43;;;32.40;53.50;;;33.46;31.87;99915.88;4914044;29;20626;-70
2022/08/14 09:03:27;;;;;;;8.07;7.37;;;32.10;53.60;;;33.37;31.75;99914.81;4900722;29;20628;-69
2022/08/14 09:06:02;;;;;;;8.83;7.40;;;31.90;53.60;;;33.82;31.26;99908.41;4903889;29;20659;-68
2022/08/14 09:08:32;;;;;;;8.57;7.27;;;32.10;53.40;;;33.96;31.61;99906.72;4907106;29;20642;-70
2022/08/14 09:11:11;;;;;;;8.37;7.30;;;32.10;53.50;;;34.30;30.88;99909.47;4921912;29;20634;-69
2022/08/14 09:13:52;;;;;;;10.07;7.00;;;32.40;53.70;;;34.48;31.01;99895.22;4899866;29;20697;-69
2022/08/14 09:16:22;;;;;;;9.07;8.20;;;32.70;53.10;;;34.47;30.77;99892.81;4913055;29;20681;-69
2022/08/14 09:18:50;;;;;;;11.10;7.30;;;32.60;53.40;;;34.55;29.91;99901.16;4894209;29;20646;-69
2022/08/14 09:21:20;;;;;;;8.07;7.37;;;32.80;52.40;;;34.35;29.73;99904.03;4895268;29;20626;-69
2022/08/14 09:23:53;;;;;;;6.20;5.70;;;32.80;51.80;;;34.65;29.33;99908.41;4879044;29;20887;-69
2022/08/14 09:26:42;;;;;;;7.47;6.80;;;32.80;51.50;;;34.67;29.03;99907.00;4898203;29;20650;-70
2022/08/14 09:29:10;;;;;;;8.17;7.47;;;32.80;51.30;;;34.47;29.93;99898.22;4896844;29;21127;-70
2022/08/14 09:31:43;;;;;;;7.27;6.57;;;32.70;51.60;;;34.47;29.76;99887.38;4911605;29;20638;-70
2022/08/14 09:34:41;;;;;;;8.40;7.50;;;32.80;51.70;;;34.50;30.32;99881.44;4898685;29;20665;-69
2022/08/14 09:37:43;;;;;;;7.43;6.70;;;32.80;52.30;;;34.48;30.54;99889.78;4912943;29;20680;-71
2022/08/14 09:40:54;;;;;;;7.40;6.70;;;32.70;52.90;;;34.55;30.67;99882.19;4897471;29;20611;-70
2022/08/14 09:43:30;;;;;;;8.93;7.00;;;32.80;52.90;;;34.50;30.46;99876.81;4913681;29;20626;-70
2022/08/14 09:45:58;;;;;;;11.20;7.77;;;32.80;52.90;;;34.13;31.16;99869.25;4913837;29;21363;-69
2022/08/14 09:48:28;;;;;;;8.63;7.77;;;32.60;53.10;;;34.34;31.66;99862.59;4879691;29;20643;-71
2022/08/14 09:50:59;;;;;;;10.50;8.50;;;32.70;53.60;;;34.13;31.41;99861.13;4901897;29;20668;-69
2022/08/14 09:53:40;;;;;;;9.43;8.40;;;32.60;53.50;;;34.08;31.81;99865.78;4910749;29;20758;-71
2022/08/14 09:56:27;;;;;;;8.73;7.63;;;32.50;53.50;;;34.27;31.07;99872.94;4913208;29;20645;-70
2022/08/14 09:59:13;;;;;;;8.20;7.30;;;32.50;53.60;;;34.20;32.04;99877.84;4907243;29;20665;-71
2022/08/14 10:01:42;;;;;;;8.47;7.67;;;32.50;53.70;;;33.94;31.53;99867.47;4913386;29;21224;-71
2022/08/14 10:04:23;;;;;;;8.93;7.20;;;32.30;53.70;;;34.20;30.95;99863.53;4897920;29;20626;-69
2022/08/14 10:07:06;;;;;;;7.47;6.67;;;32.50;53.30;;;34.35;31.21;99874.22;4904547;29;20662;-68
2022/08/14 10:09:48;;;;;;;8.10;7.00;;;32.60;53.10;;;34.54;30.68;99877.88;4911606;29;20675;-69
2022/08/14 10:12:44;;;;;;;6.87;6.37;;;32.80;52.90;;;34.50;30.23;99871.38;4909221;29;20646;-69
2022/08/14 10:15:31;;;;;;;7.67;6.87;;;32.80;52.40;;;34.51;30.82;99873.03;4914495;29;20618;-70
2022/08/14 10:18:14;;;;;;;7.27;6.57;;;32.80;52.40;;;34.63;30.11;99876.16;4913188;29;20649;-70
2022/08/14 10:21:00;;;;;;;7.63;6.90;;;32.90;52.20;;;34.67;29.82;99868.28;4914095;29;20674;-70
2022/08/14 10:23:42;;;;;;;13.90;6.97;;;32.90;51.80;;;34.73;29.52;99861.69;4893153;29;20654;-70
2022/08/14 10:26:09;;;;;;;9.07;7.30;;;33.00;51.70;;;34.74;29.71;99842.44;4948550;23;20699;-67
2022/08/14 10:28:52;;;;;;;6.33;5.73;;;33.00;51.90;;;34.64;29.95;99845.25;4978750;28;20701;-69
2022/08/14 10:31:38;;;;;;;8.10;7.40;;;32.90;51.40;;;34.41;29.89;99835.19;4988710;28;20619;-66
2022/08/14 10:34:19;;;;;;;5.70;5.30;;;32.80;51.50;;;34.06;26.97;99822.75;4990204;28;20674;-66
2022/08/14 10:37:12;;;;;;;4.77;4.47;;;32.50;48.10;;;34.16;26.57;99816.47;4974875;28;20646;-69
2022/08/14 10:39:43;;;;;;;5.03;4.63;;;32.50;47.50;;;34.07;26.78;99812.75;4964458;28;20650;-72
2022/08/14 10:42:42;;;;;;;12.53;10.63;;;32.60;48.10;;;33.88;25.42;99814.47;4960752;28;20626;-65
2022/08/14 10:45:30;;;;;;;8.60;7.80;;;32.50;46.20;;;33.77;26.22;99807.53;4973640;28;20619;-67
2022/08/14 10:48:13;;;;;;;5.27;4.90;;;32.40;46.20;;;33.78;26.19;99782.88;4975676;28;20619;-68
2022/08/14 10:51:00;;;;;;;5.13;4.57;;;32.40;46.10;;;33.82;25.88;99767.69;4961926;28;20604;-71
2022/08/14 10:53:37;;;;;;;4.70;4.30;;;32.40;46.30;;;33.78;26.34;99765.88;4963887;28;20710;-67
2022/08/14 10:56:10;;;;;;;5.13;4.73;;;32.30;46.30;;;33.96;26.40;99762.44;4975692;28;20661;-67
2022/08/14 10:59:07;;;;;;;5.13;4.63;;;32.40;46.70;;;34.08;25.87;99760.19;4970761;28;20997;-66
2022/08/14 11:01:37;;;;;;;3.53;3.30;;;32.50;46.80;;;33.90;26.38;99772.53;4959483;28;20620;-68
2022/08/14 11:04:24;;;;;;;4.43;4.13;;;32.60;46.30;;;33.78;25.72;99763.16;4975309;28;20666;-65